Ware Neck, Virginia
Current Conditions -  °F | °C
As of 2:15 PM on Monday 20 Oct 2014 (Local Time) from KW75 Reporting Station
Clear Clear  
Wind Chill: 64°   Ceiling: Unl
Heat Index: 64°   Visibility: 10mi
Dew Point: 41°   Wind: 10mph
Humidity: 42%   Direction: 210°SSW
Pressure: 30.04"   Gusts: 23mph
Location:  37.4°N, 76.46°W
Report Text: KW75 201815Z AUTO 21009G20KT 10SM CLR 18/05 A3004 RMK AO1 T01800048
Loading
Personal Weather Stations






























Interactive Weather Map
Tropical Storm Tracking
New forecast layout! Learn more

10-Day Weather Forecast

Advertisements
Track Severe Weather on mobile